Colony, Oklahoma
Current Conditions -  °F | °C
As of 7:15 AM on Sunday 23 Nov 2014 (Local Time) from KOJA Reporting Station
Overcast Overcast  
Wind Chill: 50°   Ceiling: 700
Heat Index: 50°   Visibility: 10mi
Dew Point: 48°   Wind: 10mph
Humidity: 94%   Direction: 200°SSW
Pressure: 29.45"   Gusts: NA
Location:  35.35°N, 98.68°W
Report Text: KOJA 231315Z AUTO 20009KT 10SM BKN007 OVC012 10/09 A2945 RMK AO2
Loading
Personal Weather Stations






























Interactive Weather Map New forecast layout! Learn more

10-Day Weather Forecast

Advertisements
Track Severe Weather on mobile